Time;durP1;ratioP1;P1;durP2;ratioP2;P2;SDS_P1;SDS_P2;PMS_P1;PMS_P2;Temp;Humidity;BMP_temperature;BMP_pressure;BME280_temperature;BME280_humidity;BME280_pressure;Samples;Min_cycle;Max_cycle;Signal;HPM_P1;HPM_P2
2022/02/04 00:24:47;;;;;;;7.03;5.47;;;;;;;;;;5058480;28;20254;-79
2022/02/04 00:27:19;;;;;;;6.10;5.50;;;;;;;;;;5035264;28;20189;-79
2022/02/04 00:32:14;;;;;;;5.85;5.20;;;;;;;;;;5086686;28;20176;-78
2022/02/04 00:34:47;;;;;;;7.68;6.30;;;;;;;;;;5086097;28;20222;-80
2022/02/04 00:37:30;;;;;;;5.80;5.20;;;;;;;;;;5102425;28;20176;-80
2022/02/04 00:40:06;;;;;;;5.97;5.30;;;;;;;;;;5057280;28;20681;-80
2022/02/04 00:42:35;;;;;;;5.78;5.15;;;;;;;;;;5053975;28;20717;-80
2022/02/04 00:45:16;;;;;;;6.07;5.00;;;;;;;;;;5052816;28;20203;-81
2022/02/04 00:47:47;;;;;;;6.55;5.78;;;;;;;;;;5079193;28;20191;-81
2022/02/04 00:50:29;;;;;;;5.25;4.72;;;;;;;;;;5064635;28;20210;-79
2022/02/04 00:53:14;;;;;;;6.65;5.72;;;;;;;;;;5048733;28;20182;-81
2022/02/04 00:56:28;;;;;;;8.70;7.55;;;;;;;;;;5061240;28;20176;-81
2022/02/04 01:26:11;;;;;;;6.85;5.53;;;;;;;;;;5080152;28;20226;-80
2022/02/04 01:28:38;;;;;;;6.20;5.38;;;;;;;;;;5067062;28;20180;-81
2022/02/04 01:31:05;;;;;;;6.15;5.50;;;;;;;;;;5074163;28;20176;-81
2022/02/04 01:33:31;;;;;;;5.07;4.57;;;;;;;;;;5072942;28;20211;-81
2022/02/04 01:35:57;;;;;;;5.55;5.03;;;;;;;;;;5054799;28;20252;-79
2022/02/04 01:38:24;;;;;;;5.57;4.65;;;;;;;;;;5085439;28;20224;-81
2022/02/04 01:40:50;;;;;;;6.53;5.43;;;;;;;;;;5105808;28;20611;-82
2022/02/04 01:43:21;;;;;;;5.85;5.25;;;;;;;;;;5093239;28;20187;-82
2022/02/04 01:45:47;;;;;;;6.57;5.90;;;;;;;;;;5092249;28;20275;-80
2022/02/04 01:48:13;;;;;;;6.25;5.20;;;;;;;;;;5092395;28;20212;-81
2022/02/04 01:50:39;;;;;;;7.83;6.27;;;;;;;;;;5093688;28;20237;-78
2022/02/04 01:53:05;;;;;;;5.60;4.77;;;;;;;;;;5088105;28;20509;-81
2022/02/04 01:55:31;;;;;;;7.00;5.10;;;;;;;;;;5091494;28;20442;-81
2022/02/04 01:57:57;;;;;;;5.72;4.85;;;;;;;;;;5091172;28;20338;-81
2022/02/04 02:00:23;;;;;;;6.90;5.47;;;;;;;;;;5094708;28;20276;-80
2022/02/04 02:02:51;;;;;;;8.35;6.00;;;;;;;;;;5103732;28;20183;-81
2022/02/04 02:05:17;;;;;;;7.47;5.68;;;;;;;;;;5088002;28;20196;-81
2022/02/04 02:07:46;;;;;;;7.15;6.15;;;;;;;;;;5089939;28;20353;-82
2022/02/04 02:10:15;;;;;;;8.32;6.35;;;;;;;;;;5102652;28;20671;-81
2022/02/04 02:13:05;;;;;;;9.45;6.43;;;;;;;;;;5094928;28;20271;-81
2022/02/04 02:16:08;;;;;;;7.40;6.45;;;;;;;;;;5092824;28;20250;-80
2022/02/04 02:43:14;;;;;;;9.55;6.38;;;;;;;;;;5091174;28;20281;-80
2022/02/04 02:59:10;;;;;;;8.00;5.30;;;;;;;;;;5087608;28;20184;-81
2022/02/04 03:01:36;;;;;;;8.63;4.88;;;;;;;;;;5084198;28;20949;-81
2022/02/04 03:04:07;;;;;;;8.48;5.65;;;;;;;;;;5074870;28;20203;-81
2022/02/04 03:06:33;;;;;;;6.82;4.97;;;;;;;;;;5075748;28;20207;-81
2022/02/04 03:08:59;;;;;;;8.02;5.45;;;;;;;;;;5090747;28;20617;-81
2022/02/04 03:11:25;;;;;;;7.47;5.20;;;;;;;;;;5073072;28;20197;-81
2022/02/04 03:13:51;;;;;;;8.10;5.00;;;;;;;;;;5071116;28;20176;-81
2022/02/04 03:16:18;;;;;;;4.80;3.53;;;;;;;;;;5081825;28;20179;-80
2022/02/04 03:18:49;;;;;;;5.25;4.65;;;;;;;;;;5074930;28;20188;-81
2022/02/04 03:21:19;;;;;;;5.80;3.80;;;;;;;;;;5077303;28;20180;-81
2022/02/04 03:23:52;;;;;;;6.45;4.60;;;;;;;;;;5101780;28;20214;-81
2022/02/04 03:28:47;;;;;;;4.88;4.20;;;;;;;;;;5088724;28;20180;-81
2022/02/04 03:31:13;;;;;;;5.63;4.60;;;;;;;;;;5080044;28;20171;-81
2022/02/04 03:33:41;;;;;;;6.70;4.50;;;;;;;;;;5075448;28;20188;-80
2022/02/04 03:36:07;;;;;;;6.28;4.28;;;;;;;;;;5089875;28;20188;-81
2022/02/04 03:38:33;;;;;;;5.07;4.57;;;;;;;;;;5079593;28;20255;-81
2022/02/04 03:40:59;;;;;;;6.30;4.50;;;;;;;;;;5085122;28;20207;-82
2022/02/04 03:43:25;;;;;;;6.68;5.18;;;;;;;;;;5100283;28;20432;-80
2022/02/04 03:45:52;;;;;;;8.98;5.85;;;;;;;;;;5089731;28;20207;-79
2022/02/04 03:48:18;;;;;;;7.63;5.47;;;;;;;;;;5091264;28;20628;-81
2022/02/04 03:50:44;;;;;;;7.70;5.50;;;;;;;;;;5091030;28;20190;-82
2022/02/04 03:53:13;;;;;;;10.23;5.82;;;;;;;;;;5086670;28;20463;-81
2022/02/04 03:55:39;;;;;;;7.90;5.45;;;;;;;;;;5086581;28;20204;-81
2022/02/04 03:58:05;;;;;;;8.15;6.20;;;;;;;;;;5094140;28;20180;-81
2022/02/04 04:00:31;;;;;;;7.90;5.47;;;;;;;;;;5090106;28;20238;-81
2022/02/04 04:02:57;;;;;;;9.25;6.70;;;;;;;;;;5095063;28;20282;-81
2022/02/04 04:05:23;;;;;;;7.28;6.20;;;;;;;;;;5087338;28;20210;-81
2022/02/04 04:07:50;;;;;;;7.82;6.22;;;;;;;;;;5086232;28;20176;-81
2022/02/04 04:10:21;;;;;;;6.22;5.43;;;;;;;;;;5089879;28;20609;-80
2022/02/04 04:12:47;;;;;;;6.93;5.65;;;;;;;;;;5091171;28;20230;-81
2022/02/04 04:15:13;;;;;;;5.88;4.63;;;;;;;;;;5090443;28;20441;-81
2022/02/04 04:17:44;;;;;;;5.05;4.55;;;;;;;;;;5099525;28;20735;-81
2022/02/04 04:20:11;;;;;;;6.47;4.70;;;;;;;;;;5086238;28;20259;-80
2022/02/04 04:22:38;;;;;;;8.45;5.90;;;;;;;;;;5088379;28;20253;-81
2022/02/04 04:25:04;;;;;;;7.50;5.57;;;;;;;;;;5090790;28;20193;-81
2022/02/04 04:27:31;;;;;;;9.52;5.80;;;;;;;;;;5089344;28;20184;-81
2022/02/04 04:29:57;;;;;;;8.95;5.95;;;;;;;;;;5089889;28;20227;-80
2022/02/04 04:32:23;;;;;;;9.38;7.38;;;;;;;;;;5086702;28;20253;-81
2022/02/04 04:34:49;;;;;;;8.95;6.13;;;;;;;;;;5085742;28;20661;-80
2022/02/04 04:37:15;;;;;;;9.57;6.60;;;;;;;;;;5088972;28;20238;-81
2022/02/04 04:42:52;;;;;;;9.30;6.60;;;;;;;;;;5001375;28;20195;-79
2022/02/04 05:29:06;;;;;;;10.23;6.95;;;;;;;;;;5080451;28;20199;-82
2022/02/04 05:31:32;;;;;;;9.13;6.07;;;;;;;;;;5059989;28;20189;-81
2022/02/04 05:33:58;;;;;;;9.43;6.80;;;;;;;;;;5050551;28;20284;-81
2022/02/04 05:36:24;;;;;;;10.68;7.25;;;;;;;;;;5067877;28;20181;-81
2022/02/04 05:38:52;;;;;;;11.18;8.10;;;;;;;;;;5068218;28;20220;-81
2022/02/04 05:41:25;;;;;;;9.75;7.43;;;;;;;;;;5050400;28;20188;-81
2022/02/04 05:43:53;;;;;;;10.55;7.13;;;;;;;;;;5050233;28;20241;-81
2022/02/04 05:46:25;;;;;;;10.90;7.15;;;;;;;;;;5062668;28;20204;-80
2022/02/04 05:48:54;;;;;;;9.05;6.15;;;;;;;;;;5058337;28;20177;-81
2022/02/04 05:54:03;;;;;;;11.40;7.90;;;;;;;;;;5068474;28;20188;-81
2022/02/04 06:04:42;;;;;;;9.55;7.00;;;;;;;;;;4995954;28;20194;-81
2022/02/04 06:14:55;;;;;;;11.05;8.18;;;;;;;;;;4991596;28;20452;-81
2022/02/04 06:22:51;;;;;;;12.80;7.90;;;;;;;;;;4986695;28;20190;-81
2022/02/04 06:25:18;;;;;;;11.10;7.80;;;;;;;;;;4989266;28;20207;-80
2022/02/04 06:27:44;;;;;;;9.88;7.80;;;;;;;;;;5000984;28;20208;-81
2022/02/04 06:30:11;;;;;;;11.93;8.20;;;;;;;;;;4998914;28;20208;-82
2022/02/04 06:32:37;;;;;;;8.57;7.03;;;;;;;;;;4991652;28;20195;-82
2022/02/04 06:35:07;;;;;;;12.35;7.82;;;;;;;;;;5003340;28;20183;-82
2022/02/04 06:37:33;;;;;;;12.10;7.90;;;;;;;;;;4986915;28;20225;-81
2022/02/04 06:39:59;;;;;;;8.48;6.85;;;;;;;;;;5092944;28;20176;-81
2022/02/04 06:42:27;;;;;;;11.50;7.72;;;;;;;;;;5090011;28;20191;-79
2022/02/04 06:44:53;;;;;;;10.15;7.60;;;;;;;;;;5092817;28;20239;-82
2022/02/04 06:47:19;;;;;;;10.68;7.70;;;;;;;;;;5100412;28;20261;-82
2022/02/04 06:49:46;;;;;;;9.30;7.45;;;;;;;;;;5086782;28;20173;-81
2022/02/04 06:52:12;;;;;;;11.40;6.90;;;;;;;;;;5092308;28;20196;-81
2022/02/04 06:54:38;;;;;;;8.98;6.85;;;;;;;;;;5093310;28;20204;-81
2022/02/04 06:57:04;;;;;;;10.00;6.38;;;;;;;;;;5099993;28;20180;-81
2022/02/04 06:59:30;;;;;;;9.50;6.50;;;;;;;;;;5089808;28;20187;-81
2022/02/04 07:01:57;;;;;;;9.40;7.05;;;;;;;;;;5101105;28;20172;-81
2022/02/04 07:04:25;;;;;;;11.05;8.45;;;;;;;;;;5090088;28;20173;-82
2022/02/04 07:06:57;;;;;;;8.07;6.85;;;;;;;;;;5098461;28;20245;-81
2022/02/04 07:17:28;;;;;;;7.93;5.47;;;;;;;;;;5095637;28;20238;-82
2022/02/04 07:19:56;;;;;;;8.65;6.70;;;;;;;;;;5101210;28;20192;-82
2022/02/04 07:22:31;;;;;;;9.18;6.47;;;;;;;;;;5090281;28;20187;-81
2022/02/04 07:24:59;;;;;;;7.80;5.78;;;;;;;;;;5099518;28;20297;-82
2022/02/04 07:27:25;;;;;;;9.80;6.00;;;;;;;;;;5095420;28;20220;-81
2022/02/04 07:29:53;;;;;;;7.18;5.50;;;;;;;;;;5100908;28;20191;-81
2022/02/04 07:32:26;;;;;;;8.10;6.50;;;;;;;;;;5099941;28;20187;-81
2022/02/04 07:42:55;;;;;;;6.88;5.93;;;;;;;;;;5092373;28;20499;-87
2022/02/04 07:45:21;;;;;;;8.70;6.10;;;;;;;;;;5070320;28;20462;-87
2022/02/04 07:47:51;;;;;;;6.88;5.70;;;;;;;;;;5088942;28;20249;-86
2022/02/04 07:50:21;;;;;;;8.38;6.90;;;;;;;;;;5072692;28;20199;-89
2022/02/04 07:52:50;;;;;;;8.10;6.05;;;;;;;;;;5069649;28;20852;-84
2022/02/04 07:55:17;;;;;;;6.50;5.72;;;;;;;;;;5078939;28;20199;-86
2022/02/04 07:57:43;;;;;;;9.20;6.28;;;;;;;;;;5077108;28;20188;-85
2022/02/04 08:00:13;;;;;;;6.30;5.38;;;;;;;;;;5074762;28;20188;-86
2022/02/04 08:02:39;;;;;;;8.18;5.28;;;;;;;;;;5089201;28;20250;-86
2022/02/04 08:05:07;;;;;;;6.40;4.80;;;;;;;;;;5067733;28;20246;-86
2022/02/04 08:07:42;;;;;;;8.73;4.70;;;;;;;;;;5086495;28;20205;-86
2022/02/04 08:10:23;;;;;;;8.40;5.45;;;;;;;;;;5091776;28;20203;-86
2022/02/04 08:23:33;;;;;;;8.88;5.90;;;;;;;;;;5085888;28;20200;-92
2022/02/04 08:54:32;;;;;;;6.07;4.13;;;;;;;;;;5069563;28;20177;-88
2022/02/04 08:57:03;;;;;;;5.25;4.60;;;;;;;;;;5076589;28;20307;-87
2022/02/04 08:59:54;;;;;;;4.20;3.78;;;;;;;;;;5064216;28;20191;-87
2022/02/04 09:03:27;;;;;;;5.88;4.25;;;;;;;;;;5048947;28;20230;-86
2022/02/04 09:05:30;;;;;;;4.53;4.00;;;;;;;;;;5047563;28;20209;-90
2022/02/04 09:10:44;;;;;;;5.30;3.58;;;;;;;;;;5009512;28;20179;-86
2022/02/04 09:18:37;;;;;;;3.92;3.35;;;;;;;;;;5005110;28;20225;-86
2022/02/04 09:23:32;;;;;;;3.90;3.53;;;;;;;;;;5004206;28;20187;-88
2022/02/04 09:26:00;;;;;;;5.60;3.47;;;;;;;;;;4986238;28;20230;-90
2022/02/04 09:28:27;;;;;;;6.78;3.13;;;;;;;;;;5001154;28;20214;-87
2022/02/04 09:30:53;;;;;;;6.18;3.00;;;;;;;;;;4990222;28;20254;-87
2022/02/04 09:33:19;;;;;;;3.15;2.83;;;;;;;;;;4988416;28;20317;-86
2022/02/04 09:35:45;;;;;;;4.03;2.95;;;;;;;;;;4989498;28;20198;-85
2022/02/04 09:38:11;;;;;;;3.20;2.73;;;;;;;;;;5003680;28;20298;-85
2022/02/04 09:40:37;;;;;;;3.80;3.30;;;;;;;;;;5028645;28;20464;-84
2022/02/04 09:43:03;;;;;;;4.78;2.65;;;;;;;;;;5027252;28;20197;-85
2022/02/04 09:45:31;;;;;;;4.25;3.85;;;;;;;;;;5018412;28;20198;-81
2022/02/04 09:47:58;;;;;;;3.60;3.03;;;;;;;;;;5060317;28;20198;-87
2022/02/04 09:50:26;;;;;;;2.47;2.28;;;;;;;;;;5090155;28;20310;-86
2022/02/04 10:09:58;;;;;;;4.05;3.10;;;;;;;;;;5098165;28;20208;-85
2022/02/04 10:12:37;;;;;;;2.47;2.25;;;;;;;;;;5100353;28;20180;-85
2022/02/04 10:15:17;;;;;;;2.67;2.00;;;;;;;;;;5102152;28;20180;-84
2022/02/04 10:18:06;;;;;;;2.72;2.50;;;;;;;;;;5093121;28;20187;-86
2022/02/04 10:20:33;;;;;;;2.17;1.98;;;;;;;;;;5102201;28;20214;-85
2022/02/04 10:23:00;;;;;;;2.63;2.42;;;;;;;;;;5087281;28;20211;-86
2022/02/04 10:25:31;;;;;;;2.67;1.90;;;;;;;;;;5104185;28;20203;-85
2022/02/04 10:27:57;;;;;;;2.78;1.63;;;;;;;;;;5093306;28;20184;-84
2022/02/04 10:30:23;;;;;;;1.85;1.75;;;;;;;;;;5089394;28;20202;-86
2022/02/04 10:32:49;;;;;;;3.90;2.55;;;;;;;;;;5094401;28;20207;-82
2022/02/04 10:35:15;;;;;;;3.30;2.05;;;;;;;;;;5100377;28;20187;-85
2022/02/04 10:38:19;;;;;;;2.63;2.33;;;;;;;;;;5101238;28;20219;-85
2022/02/04 10:43:33;;;;;;;3.17;2.85;;;;;;;;;;5105271;28;20202;-83
2022/02/04 10:49:01;;;;;;;3.88;3.05;;;;;;;;;;5088952;28;20203;-82
2022/02/04 11:04:47;;;;;;;3.58;2.67;;;;;;;;;;5100484;28;20671;-81
2022/02/04 11:08:04;;;;;;;3.50;3.20;;;;;;;;;;5098350;28;20653;-84
2022/02/04 11:52:08;;;;;;;1.80;1.70;;;;;;;;;;5064290;28;20192;-84
2022/02/04 11:54:40;;;;;;;3.03;1.88;;;;;;;;;;5054318;28;20189;-82
2022/02/04 11:57:06;;;;;;;2.55;1.50;;;;;;;;;;5068936;28;20239;-82
2022/02/04 11:59:33;;;;;;;1.95;1.50;;;;;;;;;;5057725;28;20706;-81
2022/02/04 12:01:59;;;;;;;1.98;1.45;;;;;;;;;;5060973;28;20200;-85
2022/02/04 12:04:25;;;;;;;1.92;1.33;;;;;;;;;;5062666;28;20668;-87
2022/02/04 12:06:52;;;;;;;1.40;1.30;;;;;;;;;;5079128;28;20215;-85
2022/02/04 12:09:33;;;;;;;1.48;1.30;;;;;;;;;;5057292;28;20189;-86
2022/02/04 12:11:59;;;;;;;3.35;2.25;;;;;;;;;;5079382;28;20203;-85
2022/02/04 12:14:32;;;;;;;3.15;1.70;;;;;;;;;;5083280;28;20180;-82
2022/02/04 12:17:06;;;;;;;3.15;1.83;;;;;;;;;;5048213;28;20652;-84
2022/02/04 12:19:36;;;;;;;7.13;1.30;;;;;;;;;;5080756;28;20672;-83
2022/02/04 12:22:02;;;;;;;1.85;1.30;;;;;;;;;;5072626;28;20185;-86
2022/02/04 12:24:33;;;;;;;2.97;1.48;;;;;;;;;;5059877;28;20184;-83
2022/02/04 12:27:17;;;;;;;1.80;1.13;;;;;;;;;;5056970;28;20552;-85
2022/02/04 12:29:43;;;;;;;1.33;1.20;;;;;;;;;;5050907;28;20176;-87
2022/02/04 12:32:09;;;;;;;1.33;1.23;;;;;;;;;;5081932;28;20211;-84
2022/02/04 12:34:36;;;;;;;2.10;1.20;;;;;;;;;;5065517;28;20200;-87
2022/02/04 12:37:04;;;;;;;6.78;0.90;;;;;;;;;;5078874;28;20190;-81
2022/02/04 12:39:31;;;;;;;1.75;1.30;;;;;;;;;;5094507;28;20211;-82
2022/02/04 12:42:01;;;;;;;2.45;1.00;;;;;;;;;;5094152;28;20814;-84
2022/02/04 12:44:29;;;;;;;1.98;1.10;;;;;;;;;;5088332;28;20184;-83
2022/02/04 12:46:56;;;;;;;2.30;1.00;;;;;;;;;;5099790;28;20203;-81
2022/02/04 12:49:23;;;;;;;1.60;0.90;;;;;;;;;;5097123;28;20181;-86
2022/02/04 12:52:04;;;;;;;1.95;0.90;;;;;;;;;;5094815;28;20191;-80
2022/02/04 12:54:31;;;;;;;3.65;1.00;;;;;;;;;;5098879;28;20258;-80
2022/02/04 12:59:57;;;;;;;0.90;0.80;;;;;;;;;;5099827;28;20212;-81
2022/02/04 13:02:38;;;;;;;4.22;1.00;;;;;;;;;;5101047;28;20180;-84
2022/02/04 13:10:18;;;;;;;1.00;0.90;;;;;;;;;;5087869;28;20172;-80
2022/02/04 13:12:49;;;;;;;1.00;0.80;;;;;;;;;;5096776;28;20434;-80
2022/02/04 13:15:15;;;;;;;1.00;0.90;;;;;;;;;;5097237;28;20179;-80
2022/02/04 13:17:41;;;;;;;3.00;0.90;;;;;;;;;;5099323;28;20276;-79
2022/02/04 13:20:08;;;;;;;1.95;1.08;;;;;;;;;;5084688;28;20184;-80
2022/02/04 13:22:37;;;;;;;1.10;0.75;;;;;;;;;;5104970;28;20195;-78
2022/02/04 13:25:07;;;;;;;2.67;1.00;;;;;;;;;;5099462;28;20241;-83
2022/02/04 13:27:33;;;;;;;1.52;0.90;;;;;;;;;;5100367;28;20267;-83
2022/02/04 13:29:59;;;;;;;5.90;0.97;;;;;;;;;;5100601;28;20201;-82
2022/02/04 13:32:26;;;;;;;0.95;0.80;;;;;;;;;;5098922;28;21027;-81
2022/02/04 13:34:53;;;;;;;5.35;0.80;;;;;;;;;;5102075;28;20179;-86
2022/02/04 13:37:33;;;;;;;1.13;0.90;;;;;;;;;;5097833;28;20190;-77
2022/02/04 13:40:16;;;;;;;1.80;0.90;;;;;;;;;;5061463;28;20207;-84
2022/02/04 13:42:48;;;;;;;2.33;0.90;;;;;;;;;;5079674;28;20229;-84
2022/02/04 13:45:38;;;;;;;1.10;1.00;;;;;;;;;;5061842;28;20209;-88
2022/02/04 13:48:17;;;;;;;1.75;1.08;;;;;;;;;;5050111;28;20188;-81
2022/02/04 13:51:04;;;;;;;3.30;0.90;;;;;;;;;;5077958;28;20180;-82
2022/02/04 13:53:49;;;;;;;1.65;1.02;;;;;;;;;;5048127;28;20189;-82
2022/02/04 13:56:42;;;;;;;1.55;0.93;;;;;;;;;;5046284;28;20204;-85
2022/02/04 13:59:28;;;;;;;1.95;0.95;;;;;;;;;;5046252;28;20191;-79
2022/02/04 14:02:35;;;;;;;1.60;1.10;;;;;;;;;;5070531;28;20180;-82
2022/02/04 14:05:03;;;;;;;0.80;0.80;;;;;;;;;;4970671;28;20195;-82
2022/02/04 14:07:33;;;;;;;1.40;1.10;;;;;;;;;;4998087;28;20184;-81
2022/02/04 14:10:07;;;;;;;1.52;0.90;;;;;;;;;;4998978;28;20187;-80
2022/02/04 14:12:33;;;;;;;1.67;1.05;;;;;;;;;;4986703;28;20227;-80
2022/02/04 14:15:03;;;;;;;3.75;0.90;;;;;;;;;;4987340;28;20215;-81
2022/02/04 14:17:29;;;;;;;3.78;1.33;;;;;;;;;;4982885;28;20254;-82
2022/02/04 14:19:55;;;;;;;2.17;1.10;;;;;;;;;;4999265;28;20202;-81
2022/02/04 14:22:22;;;;;;;1.80;0.85;;;;;;;;;;5001305;28;20472;-78
2022/02/04 14:24:49;;;;;;;4.38;1.10;;;;;;;;;;4986942;28;20337;-80
2022/02/04 14:27:15;;;;;;;1.38;0.98;;;;;;;;;;4998659;28;20984;-79
2022/02/04 14:29:55;;;;;;;1.80;0.90;;;;;;;;;;4983694;28;20213;-79
2022/02/04 14:32:28;;;;;;;2.95;0.90;;;;;;;;;;4999291;28;20179;-79
2022/02/04 14:53:38;;;;;;;1.08;1.00;;;;;;;;;;5087204;28;20222;-81
2022/02/04 15:01:36;;;;;;;1.90;1.00;;;;;;;;;;5100575;28;20211;-82
2022/02/04 15:06:34;;;;;;;3.20;0.95;;;;;;;;;;5099220;28;20215;-83
2022/02/04 15:09:00;;;;;;;2.05;0.90;;;;;;;;;;5100989;28;20211;-84
2022/02/04 15:11:32;;;;;;;1.77;1.10;;;;;;;;;;5100735;28;20168;-81
2022/02/04 15:13:59;;;;;;;1.10;1.00;;;;;;;;;;5089720;28;20234;-85
2022/02/04 15:16:26;;;;;;;1.25;0.88;;;;;;;;;;5102923;28;20210;-82
2022/02/04 15:18:52;;;;;;;1.77;1.05;;;;;;;;;;5101900;28;20211;-81
2022/02/04 15:21:19;;;;;;;1.90;1.50;;;;;;;;;;5095281;28;20180;-82
2022/02/04 15:23:48;;;;;;;1.40;1.05;;;;;;;;;;5094526;28;20675;-82
2022/02/04 15:26:15;;;;;;;1.38;0.80;;;;;;;;;;5102060;28;20230;-83
2022/02/04 15:28:45;;;;;;;1.70;0.98;;;;;;;;;;5104313;28;20198;-81
2022/02/04 15:31:23;;;;;;;0.80;0.80;;;;;;;;;;5096873;28;20214;-82
2022/02/04 15:33:51;;;;;;;1.30;1.20;;;;;;;;;;5096725;28;20212;-83
2022/02/04 15:36:24;;;;;;;1.15;0.80;;;;;;;;;;5103089;28;20243;-84
2022/02/04 15:38:50;;;;;;;1.20;0.98;;;;;;;;;;5096394;28;20216;-82
2022/02/04 15:41:17;;;;;;;2.22;0.93;;;;;;;;;;5102164;28;20199;-83
2022/02/04 15:43:48;;;;;;;1.00;0.90;;;;;;;;;;5104426;28;20180;-84
2022/02/04 15:46:41;;;;;;;1.02;0.93;;;;;;;;;;5102791;28;20263;-86
2022/02/04 15:52:13;;;;;;;1.48;0.90;;;;;;;;;;5100679;28;20180;-84
2022/02/04 15:54:45;;;;;;;4.55;1.50;;;;;;;;;;5092571;28;20188;-84
2022/02/04 16:05:11;;;;;;;2.40;0.93;;;;;;;;;;5099403;28;20199;-83
2022/02/04 16:07:38;;;;;;;5.63;1.02;;;;;;;;;;5102377;28;20180;-82
2022/02/04 16:10:19;;;;;;;3.88;1.58;;;;;;;;;;5099640;28;20183;-83
2022/02/04 16:13:05;;;;;;;2.75;1.30;;;;;;;;;;5101144;28;20186;-84
2022/02/04 16:18:00;;;;;;;1.53;1.20;;;;;;;;;;5090758;28;20183;-82
2022/02/04 16:20:50;;;;;;;2.42;1.30;;;;;;;;;;5099969;28;20843;-83
2022/02/04 16:23:25;;;;;;;1.95;1.20;;;;;;;;;;5084940;28;20248;-81
2022/02/04 16:31:03;;;;;;;8.63;2.25;;;;;;;;;;5100377;28;20733;-81
2022/02/04 16:33:29;;;;;;;7.63;1.67;;;;;;;;;;5098802;28;20187;-79
2022/02/04 16:36:02;;;;;;;1.95;1.42;;;;;;;;;;5100830;28;20184;-83
2022/02/04 16:38:29;;;;;;;1.60;1.30;;;;;;;;;;5094730;28;20224;-82
2022/02/04 16:40:56;;;;;;;3.83;1.08;;;;;;;;;;5094143;28;20271;-82
2022/02/04 16:43:23;;;;;;;3.50;1.45;;;;;;;;;;5088143;28;20266;-83
2022/02/04 16:45:54;;;;;;;5.25;1.88;;;;;;;;;;5092731;28;20206;-82
2022/02/04 16:48:20;;;;;;;2.88;1.35;;;;;;;;;;5099071;28;20176;-86
2022/02/04 16:50:49;;;;;;;2.55;1.35;;;;;;;;;;5091974;28;20172;-83
2022/02/04 16:53:15;;;;;;;1.23;1.13;;;;;;;;;;5095198;28;20187;-83
2022/02/04 16:55:41;;;;;;;1.35;1.15;;;;;;;;;;5089706;28;20180;-83
2022/02/04 16:58:07;;;;;;;3.05;1.35;;;;;;;;;;5099704;28;20259;-83
2022/02/04 17:00:33;;;;;;;5.95;1.52;;;;;;;;;;5092989;28;20650;-81
2022/02/04 17:03:05;;;;;;;1.95;1.20;;;;;;;;;;5095446;28;20183;-84
2022/02/04 17:05:39;;;;;;;3.42;1.88;;;;;;;;;;5098225;28;20218;-83
2022/02/04 17:08:08;;;;;;;2.08;1.52;;;;;;;;;;5099043;28;20183;-83
2022/02/04 17:10:36;;;;;;;4.40;1.63;;;;;;;;;;5098184;28;20212;-84
2022/02/04 17:13:02;;;;;;;1.70;1.60;;;;;;;;;;5088292;28;20177;-83
2022/02/04 17:15:29;;;;;;;1.75;1.38;;;;;;;;;;5091707;28;20657;-82
2022/02/04 17:18:02;;;;;;;5.00;1.80;;;;;;;;;;5097357;28;20214;-82
2022/02/04 17:20:29;;;;;;;4.70;1.52;;;;;;;;;;5090583;28;20517;-83
2022/02/04 17:22:56;;;;;;;4.63;3.58;;;;;;;;;;5091295;28;20218;-82
2022/02/04 17:25:25;;;;;;;7.47;1.90;;;;;;;;;;5096734;28;20294;-82
2022/02/04 17:27:52;;;;;;;4.07;2.25;;;;;;;;;;5094834;28;20614;-81
2022/02/04 17:30:18;;;;;;;4.78;2.35;;;;;;;;;;5095640;28;20179;-82
2022/02/04 17:32:49;;;;;;;2.40;2.03;;;;;;;;;;5089730;28;20184;-84
2022/02/04 17:35:15;;;;;;;2.42;1.90;;;;;;;;;;5098412;28;20188;-84
2022/02/04 17:37:42;;;;;;;3.38;2.22;;;;;;;;;;5094734;28;20231;-84
2022/02/04 17:40:09;;;;;;;3.13;1.80;;;;;;;;;;5100585;28;20715;-83
2022/02/04 17:42:37;;;;;;;2.92;2.42;;;;;;;;;;5096334;28;20206;-80
2022/02/04 17:45:05;;;;;;;3.50;2.95;;;;;;;;;;5097321;28;20555;-83
2022/02/04 17:47:31;;;;;;;3.53;2.72;;;;;;;;;;5093911;28;20183;-82
2022/02/04 17:52:35;;;;;;;4.28;3.40;;;;;;;;;;5099812;28;20176;-83
2022/02/04 17:55:07;;;;;;;6.00;4.03;;;;;;;;;;5086458;28;20571;-84
2022/02/04 17:57:41;;;;;;;4.03;3.30;;;;;;;;;;5096674;28;20248;-81
2022/02/04 18:08:07;;;;;;;3.95;2.70;;;;;;;;;;5099886;28;20184;-83
2022/02/04 18:10:33;;;;;;;8.43;4.47;;;;;;;;;;5089466;28;20594;-85
2022/02/04 18:12:59;;;;;;;4.72;3.85;;;;;;;;;;5100905;28;20187;-84
2022/02/04 18:15:26;;;;;;;3.88;2.35;;;;;;;;;;5092788;28;20437;-83
2022/02/04 18:17:52;;;;;;;5.82;3.58;;;;;;;;;;5094082;28;20183;-82
2022/02/04 18:20:20;;;;;;;8.83;3.97;;;;;;;;;;5094221;28;20188;-86
2022/02/04 18:22:46;;;;;;;7.32;3.65;;;;;;;;;;5090178;28;20414;-84
2022/02/04 18:25:12;;;;;;;4.63;3.17;;;;;;;;;;5096435;28;20248;-81
2022/02/04 18:27:39;;;;;;;6.05;3.13;;;;;;;;;;5098074;28;20249;-84
2022/02/04 18:30:09;;;;;;;2.90;2.00;;;;;;;;;;5098404;28;20176;-84
2022/02/04 18:32:36;;;;;;;4.68;2.40;;;;;;;;;;5092122;28;20576;-83
2022/02/04 18:35:04;;;;;;;6.35;3.08;;;;;;;;;;5091376;28;20262;-82
2022/02/04 18:37:38;;;;;;;2.80;2.03;;;;;;;;;;5095016;28;20178;-83
2022/02/04 18:40:32;;;;;;;6.13;4.15;;;;;;;;;;5056642;28;20204;-83
2022/02/04 18:45:28;;;;;;;5.30;4.55;;;;;;;;;;5067956;28;20346;-83
2022/02/04 18:48:04;;;;;;;11.25;6.00;;;;;;;;;;5052225;28;20267;-83
2022/02/04 18:50:44;;;;;;;9.45;4.35;;;;;;;;;;5051502;28;20188;-83
2022/02/04 18:53:26;;;;;;;7.50;4.47;;;;;;;;;;5048911;28;20187;-83
2022/02/04 18:58:22;;;;;;;7.10;6.43;;;;;;;;;;5084785;28;20195;-78
2022/02/04 19:00:51;;;;;;;7.65;5.53;;;;;;;;;;5076096;28;20509;-79
2022/02/04 19:03:23;;;;;;;9.70;5.30;;;;;;;;;;5068378;28;20193;-79
2022/02/04 19:06:39;;;;;;;8.27;5.65;;;;;;;;;;5077568;28;20231;-79
2022/02/04 19:08:42;;;;;;;10.82;4.95;;;;;;;;;;5068339;28;20176;-79
2022/02/04 19:11:09;;;;;;;8.43;6.10;;;;;;;;;;5062678;28;20172;-79
2022/02/04 19:13:47;;;;;;;7.65;5.43;;;;;;;;;;5066539;28;20216;-79
2022/02/04 19:16:31;;;;;;;14.00;7.35;;;;;;;;;;5084175;28;20207;-79
2022/02/04 19:19:00;;;;;;;9.98;6.00;;;;;;;;;;5062466;28;20219;-79
2022/02/04 19:21:42;;;;;;;7.50;5.10;;;;;;;;;;5062730;28;20176;-79
2022/02/04 19:24:11;;;;;;;9.50;6.88;;;;;;;;;;5054900;28;20255;-79
2022/02/04 19:26:37;;;;;;;7.45;5.68;;;;;;;;;;5062503;28;20264;-79
2022/02/04 19:29:03;;;;;;;9.32;5.95;;;;;;;;;;5064303;28;20276;-79
2022/02/04 19:31:32;;;;;;;13.02;6.88;;;;;;;;;;5062715;28;20177;-80
2022/02/04 19:33:58;;;;;;;9.65;7.05;;;;;;;;;;5057338;28;20181;-79
2022/02/04 19:36:24;;;;;;;10.25;7.10;;;;;;;;;;5063085;28;20183;-80
2022/02/04 19:38:50;;;;;;;7.45;6.47;;;;;;;;;;5085807;28;20576;-80
2022/02/04 19:41:20;;;;;;;11.00;8.02;;;;;;;;;;5101906;28;20728;-80
2022/02/04 19:43:50;;;;;;;12.30;8.13;;;;;;;;;;5102355;28;20537;-79
2022/02/04 19:46:20;;;;;;;10.48;8.25;;;;;;;;;;5100399;28;20248;-80
2022/02/04 19:48:51;;;;;;;10.48;5.95;;;;;;;;;;5090301;28;20185;-78
2022/02/04 19:51:26;;;;;;;15.50;7.63;;;;;;;;;;5096921;28;20192;-79
2022/02/04 20:26:05;;;;;;;8.32;6.43;;;;;;;;;;5101807;28;21118;-80
2022/02/04 20:28:31;;;;;;;14.00;9.88;;;;;;;;;;5102672;28;20271;-80
2022/02/04 20:30:57;;;;;;;14.55;9.40;;;;;;;;;;5098258;28;20244;-79
2022/02/04 20:33:23;;;;;;;13.75;8.63;;;;;;;;;;5097819;28;20577;-78
2022/02/04 20:35:49;;;;;;;11.98;8.93;;;;;;;;;;5100838;28;20243;-78
2022/02/04 20:38:17;;;;;;;6.80;6.10;;;;;;;;;;5091818;28;20250;-78
2022/02/04 20:40:53;;;;;;;7.50;6.80;;;;;;;;;;5083717;28;20634;-80
2022/02/04 20:43:19;;;;;;;11.05;8.23;;;;;;;;;;5080917;28;20179;-76
2022/02/04 20:45:46;;;;;;;11.82;6.95;;;;;;;;;;5060693;28;20267;-79
2022/02/04 20:48:12;;;;;;;11.50;7.53;;;;;;;;;;5061475;28;20176;-80
2022/02/04 20:50:38;;;;;;;18.58;8.30;;;;;;;;;;5079062;28;20180;-79
2022/02/04 20:53:04;;;;;;;9.70;7.05;;;;;;;;;;5046487;28;20209;-79
2022/02/04 20:55:32;;;;;;;10.65;6.47;;;;;;;;;;5064637;28;20247;-80
2022/02/04 20:57:59;;;;;;;11.82;8.77;;;;;;;;;;5077595;28;20255;-80
2022/02/04 21:00:29;;;;;;;12.20;8.23;;;;;;;;;;5079895;28;20181;-80
2022/02/04 21:02:56;;;;;;;14.60;7.75;;;;;;;;;;5061398;28;20193;-79
2022/02/04 21:05:27;;;;;;;11.25;6.93;;;;;;;;;;5059602;28;20232;-78
2022/02/04 21:15:52;;;;;;;12.43;6.50;;;;;;;;;;5078855;28;20195;-80
2022/02/04 21:18:18;;;;;;;10.13;6.00;;;;;;;;;;5078096;28;20197;-81
2022/02/04 21:20:44;;;;;;;7.53;6.65;;;;;;;;;;5060992;28;20177;-80
2022/02/04 21:23:10;;;;;;;12.88;8.25;;;;;;;;;;5080016;28;20187;-79
2022/02/04 21:25:37;;;;;;;11.52;6.75;;;;;;;;;;5061975;28;20196;-80
2022/02/04 21:28:07;;;;;;;10.48;6.78;;;;;;;;;;5060050;28;20254;-80
2022/02/04 21:30:33;;;;;;;7.78;4.95;;;;;;;;;;5063332;28;20383;-78
2022/02/04 21:33:01;;;;;;;9.75;5.32;;;;;;;;;;5078010;28;20172;-81
2022/02/04 21:38:12;;;;;;;12.25;4.70;;;;;;;;;;5063623;28;20226;-82
2022/02/04 21:40:39;;;;;;;8.40;4.82;;;;;;;;;;5052956;28;20203;-80
2022/02/04 21:43:05;;;;;;;8.27;5.35;;;;;;;;;;5073801;28;20184;-79
2022/02/04 21:45:34;;;;;;;9.95;5.15;;;;;;;;;;5063116;28;20208;-80
2022/02/04 21:48:03;;;;;;;10.52;5.38;;;;;;;;;;5064268;28;20641;-77
2022/02/04 21:50:31;;;;;;;5.47;3.75;;;;;;;;;;5062580;28;21001;-80
2022/02/04 21:52:57;;;;;;;8.32;3.30;;;;;;;;;;5050497;28;20376;-82
2022/02/04 21:55:23;;;;;;;7.83;3.80;;;;;;;;;;5067268;28;20182;-81
2022/02/04 21:57:49;;;;;;;5.60;3.63;;;;;;;;;;5062649;28;20441;-80